sensor_id;sensor_type;location;lat;lon;timestamp;pressure;altitude;pressure_sealevel;temperature;humidity
60061;BME280;45933;51.336;12.612;2023-04-03T00:02:01;101085.03;;;4.16;53.46
60061;BME280;45933;51.336;12.612;2023-04-03T00:04:26;101084.94;;;4.13;53.34
60061;BME280;45933;51.336;12.612;2023-04-03T00:06:52;101077.91;;;4.09;53.59
60061;BME280;45933;51.336;12.612;2023-04-03T00:09:17;101087.22;;;4.05;53.57
60061;BME280;45933;51.336;12.612;2023-04-03T00:11:42;101082.91;;;4.04;53.37
60061;BME280;45933;51.336;12.612;2023-04-03T00:14:08;101083.59;;;4.00;53.45
60061;BME280;45933;51.336;12.612;2023-04-03T00:16:33;101096.50;;;4.00;53.47
60061;BME280;45933;51.336;12.612;2023-04-03T00:18:58;101096.34;;;3.96;53.38
60061;BME280;45933;51.336;12.612;2023-04-03T00:21:23;101092.94;;;3.97;53.63
60061;BME280;45933;51.336;12.612;2023-04-03T00:23:49;101088.53;;;3.94;53.44
60061;BME280;45933;51.336;12.612;2023-04-03T00:26:14;101087.63;;;3.92;53.72
60061;BME280;45933;51.336;12.612;2023-04-03T00:28:39;101091.72;;;3.87;53.63
60061;BME280;45933;51.336;12.612;2023-04-03T00:31:05;101095.00;;;3.83;53.28
60061;BME280;45933;51.336;12.612;2023-04-03T00:33:30;101103.44;;;3.79;53.36
60061;BME280;45933;51.336;12.612;2023-04-03T00:35:55;101102.56;;;3.78;53.45
60061;BME280;45933;51.336;12.612;2023-04-03T00:38:21;101103.25;;;3.74;53.39
60061;BME280;45933;51.336;12.612;2023-04-03T00:40:48;101102.28;;;3.71;53.24
60061;BME280;45933;51.336;12.612;2023-04-03T00:43:22;101100.59;;;3.71;53.39
60061;BME280;45933;51.336;12.612;2023-04-03T00:45:50;101104.50;;;3.61;53.63
60061;BME280;45933;51.336;12.612;2023-04-03T00:48:36;101106.34;;;3.64;53.42
60061;BME280;45933;51.336;12.612;2023-04-03T00:51:06;101105.31;;;3.60;53.51
60061;BME280;45933;51.336;12.612;2023-04-03T00:53:39;101108.53;;;3.55;53.50
60061;BME280;45933;51.336;12.612;2023-04-03T00:56:07;101106.63;;;3.49;53.46
60061;BME280;45933;51.336;12.612;2023-04-03T00:58:37;101109.06;;;3.46;53.69
60061;BME280;45933;51.336;12.612;2023-04-03T01:01:07;101108.03;;;3.42;53.77
60061;BME280;45933;51.336;12.612;2023-04-03T01:03:33;101106.75;;;3.31;54.08
60061;BME280;45933;51.336;12.612;2023-04-03T01:05:58;101106.69;;;3.30;53.80
60061;BME280;45933;51.336;12.612;2023-04-03T01:08:24;101106.44;;;3.24;54.02
60061;BME280;45933;51.336;12.612;2023-04-03T01:10:50;101112.28;;;3.20;54.17
60061;BME280;45933;51.336;12.612;2023-04-03T01:13:21;101107.31;;;3.24;54.23
60061;BME280;45933;51.336;12.612;2023-04-03T01:15:47;101115.56;;;3.15;54.88
60061;BME280;45933;51.336;12.612;2023-04-03T01:18:12;101115.34;;;3.11;54.36
60061;BME280;45933;51.336;12.612;2023-04-03T01:21:14;101107.91;;;3.17;54.03
60061;BME280;45933;51.336;12.612;2023-04-03T01:23:57;101117.78;;;3.06;54.30
60061;BME280;45933;51.336;12.612;2023-04-03T01:26:25;101122.78;;;3.03;54.38
60061;BME280;45933;51.336;12.612;2023-04-03T01:28:53;101112.28;;;2.99;54.82
60061;BME280;45933;51.336;12.612;2023-04-03T01:31:28;101120.03;;;2.99;54.74
60061;BME280;45933;51.336;12.612;2023-04-03T01:33:54;101121.53;;;2.94;54.62
60061;BME280;45933;51.336;12.612;2023-04-03T01:36:23;101123.13;;;2.90;54.78
60061;BME280;45933;51.336;12.612;2023-04-03T01:38:50;101129.81;;;2.86;54.70
60061;BME280;45933;51.336;12.612;2023-04-03T01:41:16;101126.03;;;2.78;55.08
60061;BME280;45933;51.336;12.612;2023-04-03T01:43:41;101132.00;;;2.77;54.90
60061;BME280;45933;51.336;12.612;2023-04-03T01:46:07;101127.53;;;2.73;55.36
60061;BME280;45933;51.336;12.612;2023-04-03T01:48:33;101133.38;;;2.69;55.27
60061;BME280;45933;51.336;12.612;2023-04-03T01:50:58;101137.44;;;2.64;55.57
60061;BME280;45933;51.336;12.612;2023-04-03T01:53:23;101143.38;;;2.63;55.47
60061;BME280;45933;51.336;12.612;2023-04-03T01:55:48;101144.97;;;2.59;55.61
60061;BME280;45933;51.336;12.612;2023-04-03T01:58:14;101141.44;;;2.57;55.74
60061;BME280;45933;51.336;12.612;2023-04-03T02:00:39;101143.06;;;2.55;55.91
60061;BME280;45933;51.336;12.612;2023-04-03T02:03:04;101145.50;;;2.52;56.00
60061;BME280;45933;51.336;12.612;2023-04-03T02:05:30;101151.34;;;2.48;55.75
60061;BME280;45933;51.336;12.612;2023-04-03T02:07:56;101146.13;;;2.47;56.20
60061;BME280;45933;51.336;12.612;2023-04-03T02:10:21;101152.03;;;2.44;56.41
60061;BME280;45933;51.336;12.612;2023-04-03T02:12:46;101157.16;;;2.44;55.86
60061;BME280;45933;51.336;12.612;2023-04-03T02:15:12;101163.84;;;2.41;56.26
60061;BME280;45933;51.336;12.612;2023-04-03T02:17:37;101160.41;;;2.40;56.33
60061;BME280;45933;51.336;12.612;2023-04-03T02:20:03;101164.63;;;2.38;56.62
60061;BME280;45933;51.336;12.612;2023-04-03T02:22:29;101163.66;;;2.36;56.70
60061;BME280;45933;51.336;12.612;2023-04-03T02:24:55;101161.91;;;2.35;56.28
60061;BME280;45933;51.336;12.612;2023-04-03T02:27:20;101160.97;;;2.33;56.40
60061;BME280;45933;51.336;12.612;2023-04-03T02:29:45;101165.97;;;2.30;56.77
60061;BME280;45933;51.336;12.612;2023-04-03T02:32:10;101164.03;;;2.26;56.91
60061;BME280;45933;51.336;12.612;2023-04-03T02:34:36;101171.72;;;2.24;56.82
60061;BME280;45933;51.336;12.612;2023-04-03T02:37:01;101175.81;;;2.21;57.08
60061;BME280;45933;51.336;12.612;2023-04-03T02:39:26;101180.03;;;2.19;57.06
60061;BME280;45933;51.336;12.612;2023-04-03T02:41:52;101182.53;;;2.17;56.86
60061;BME280;45933;51.336;12.612;2023-04-03T02:44:17;101177.25;;;2.14;57.02
60061;BME280;45933;51.336;12.612;2023-04-03T02:46:44;101191.66;;;2.10;57.31
60061;BME280;45933;51.336;12.612;2023-04-03T02:49:09;101188.13;;;2.08;57.11
60061;BME280;45933;51.336;12.612;2023-04-03T02:51:34;101187.09;;;2.05;57.35
60061;BME280;45933;51.336;12.612;2023-04-03T02:54:00;101187.84;;;2.02;57.24
60061;BME280;45933;51.336;12.612;2023-04-03T02:56:25;101188.56;;;2.00;57.07
60061;BME280;45933;51.336;12.612;2023-04-03T02:58:52;101188.38;;;1.95;57.10
60061;BME280;45933;51.336;12.612;2023-04-03T03:01:17;101189.94;;;1.92;57.29
60061;BME280;45933;51.336;12.612;2023-04-03T03:03:42;101198.38;;;1.89;57.06
60061;BME280;45933;51.336;12.612;2023-04-03T03:06:14;101196.66;;;1.90;57.40
60061;BME280;45933;51.336;12.612;2023-04-03T03:08:40;101197.19;;;1.82;57.82
60061;BME280;45933;51.336;12.612;2023-04-03T03:11:05;101193.69;;;1.80;57.25
60061;BME280;45933;51.336;12.612;2023-04-03T03:13:31;101196.09;;;1.77;57.43
60061;BME280;45933;51.336;12.612;2023-04-03T03:15:57;101194.19;;;1.73;57.49
60061;BME280;45933;51.336;12.612;2023-04-03T03:18:22;101197.50;;;1.71;57.90
60061;BME280;45933;51.336;12.612;2023-04-03T03:20:56;101196.69;;;1.72;57.38
60061;BME280;45933;51.336;12.612;2023-04-03T03:23:23;101198.91;;;1.64;57.55
60061;BME280;45933;51.336;12.612;2023-04-03T03:25:48;101203.00;;;1.61;57.82
60061;BME280;45933;51.336;12.612;2023-04-03T03:28:14;101205.41;;;1.57;57.87
60061;BME280;45933;51.336;12.612;2023-04-03T03:30:39;101212.13;;;1.54;57.91
60061;BME280;45933;51.336;12.612;2023-04-03T03:33:05;101207.63;;;1.50;57.94
60061;BME280;45933;51.336;12.612;2023-04-03T03:35:30;101209.25;;;1.48;58.46
60061;BME280;45933;51.336;12.612;2023-04-03T03:37:56;101214.31;;;1.46;58.03
60061;BME280;45933;51.336;12.612;2023-04-03T03:40:21;101214.16;;;1.43;58.23
60061;BME280;45933;51.336;12.612;2023-04-03T03:42:46;101214.88;;;1.41;58.65
60061;BME280;45933;51.336;12.612;2023-04-03T03:45:11;101214.81;;;1.39;58.60
60061;BME280;45933;51.336;12.612;2023-04-03T03:47:37;101219.00;;;1.37;58.34
60061;BME280;45933;51.336;12.612;2023-04-03T03:50:03;101217.97;;;1.34;58.41
60061;BME280;45933;51.336;12.612;2023-04-03T03:52:28;101225.59;;;1.32;58.60
60061;BME280;45933;51.336;12.612;2023-04-03T03:54:55;101220.22;;;1.27;58.50
60061;BME280;45933;51.336;12.612;2023-04-03T03:57:20;101225.22;;;1.24;58.88
60061;BME280;45933;51.336;12.612;2023-04-03T03:59:46;101219.13;;;1.22;58.59
60061;BME280;45933;51.336;12.612;2023-04-03T04:02:12;101231.00;;;1.20;58.84
60061;BME280;45933;51.336;12.612;2023-04-03T04:04:37;101228.41;;;1.20;58.32
60061;BME280;45933;51.336;12.612;2023-04-03T04:07:03;101233.41;;;1.17;58.99
60061;BME280;45933;51.336;12.612;2023-04-03T04:09:29;101229.97;;;1.17;58.56
60061;BME280;45933;51.336;12.612;2023-04-03T04:11:54;101233.25;;;1.14;58.68
60061;BME280;45933;51.336;12.612;2023-04-03T04:14:19;101239.19;;;1.13;59.26
60061;BME280;45933;51.336;12.612;2023-04-03T04:16:48;101242.47;;;1.11;58.41
60061;BME280;45933;51.336;12.612;2023-04-03T04:19:14;101244.03;;;1.07;59.14
60061;BME280;45933;51.336;12.612;2023-04-03T04:21:39;101240.47;;;1.05;58.90
60061;BME280;45933;51.336;12.612;2023-04-03T04:24:07;101246.53;;;1.06;58.74
60061;BME280;45933;51.336;12.612;2023-04-03T04:26:32;101245.47;;;1.02;58.96
60061;BME280;45933;51.336;12.612;2023-04-03T04:28:57;101247.16;;;1.01;58.76
60061;BME280;45933;51.336;12.612;2023-04-03T04:31:23;101241.06;;;0.99;58.80
60061;BME280;45933;51.336;12.612;2023-04-03T04:33:48;101247.00;;;0.98;59.15
60061;BME280;45933;51.336;12.612;2023-04-03T04:36:13;101246.84;;;0.95;59.08
60061;BME280;45933;51.336;12.612;2023-04-03T04:38:40;101247.56;;;0.93;58.94
60061;BME280;45933;51.336;12.612;2023-04-03T04:41:05;101250.06;;;0.91;59.06
60061;BME280;45933;51.336;12.612;2023-04-03T04:43:31;101252.56;;;0.90;59.31
60061;BME280;45933;51.336;12.612;2023-04-03T04:46:01;101265.53;;;0.93;58.80
60061;BME280;45933;51.336;12.612;2023-04-03T04:48:26;101260.97;;;0.87;58.89
60061;BME280;45933;51.336;12.612;2023-04-03T04:50:52;101265.22;;;0.87;58.94
60061;BME280;45933;51.336;12.612;2023-04-03T04:53:17;101266.84;;;0.85;59.14
60061;BME280;45933;51.336;12.612;2023-04-03T04:55:42;101270.19;;;0.84;59.37
60061;BME280;45933;51.336;12.612;2023-04-03T04:58:07;101269.22;;;0.82;58.88
60061;BME280;45933;51.336;12.612;2023-04-03T05:00:33;101273.47;;;0.81;59.02
60061;BME280;45933;51.336;12.612;2023-04-03T05:02:58;101272.59;;;0.81;59.72
60061;BME280;45933;51.336;12.612;2023-04-03T05:05:23;101278.63;;;0.81;59.19
60061;BME280;45933;51.336;12.612;2023-04-03T05:07:49;101279.44;;;0.80;59.40
60061;BME280;45933;51.336;12.612;2023-04-03T05:10:14;101285.34;;;0.79;59.19
60061;BME280;45933;51.336;12.612;2023-04-03T05:12:39;101282.88;;;0.81;58.98
60061;BME280;45933;51.336;12.612;2023-04-03T05:15:05;101277.75;;;0.81;58.95
60061;BME280;45933;51.336;12.612;2023-04-03T05:17:31;101290.66;;;0.82;59.40
60061;BME280;45933;51.336;12.612;2023-04-03T05:19:56;101286.38;;;0.83;59.07
60061;BME280;45933;51.336;12.612;2023-04-03T05:22:21;101288.06;;;0.82;59.00
60061;BME280;45933;51.336;12.612;2023-04-03T05:24:47;101287.28;;;0.83;59.21
60061;BME280;45933;51.336;12.612;2023-04-03T05:27:12;101294.25;;;0.86;59.00
60061;BME280;45933;51.336;12.612;2023-04-03T05:29:37;101289.28;;;0.89;59.37
60061;BME280;45933;51.336;12.612;2023-04-03T05:32:03;101299.53;;;0.89;59.24
60061;BME280;45933;51.336;12.612;2023-04-03T05:34:28;101289.38;;;0.90;58.90
60061;BME280;45933;51.336;12.612;2023-04-03T05:36:54;101295.53;;;0.94;59.27
60061;BME280;45933;51.336;12.612;2023-04-03T05:39:19;101308.47;;;0.95;59.08
60061;BME280;45933;51.336;12.612;2023-04-03T05:41:44;101301.78;;;0.99;59.27
60061;BME280;45933;51.336;12.612;2023-04-03T05:44:10;101304.38;;;0.99;59.05
60061;BME280;45933;51.336;12.612;2023-04-03T05:46:35;101302.78;;;1.01;59.20
60061;BME280;45933;51.336;12.612;2023-04-03T05:49:00;101304.69;;;1.05;59.39
60061;BME280;45933;51.336;12.612;2023-04-03T05:51:31;101309.09;;;1.08;58.92
60061;BME280;45933;51.336;12.612;2023-04-03T05:54:08;101311.09;;;1.13;59.39
60061;BME280;45933;51.336;12.612;2023-04-03T05:56:34;101319.69;;;1.14;59.16
60061;BME280;45933;51.336;12.612;2023-04-03T05:59:00;101316.41;;;1.16;59.10
60061;BME280;45933;51.336;12.612;2023-04-03T06:01:25;101314.81;;;1.18;58.94
60061;BME280;45933;51.336;12.612;2023-04-03T06:03:51;101321.63;;;1.18;58.99
60061;BME280;45933;51.336;12.612;2023-04-03T06:06:16;101320.19;;;1.23;58.82
60061;BME280;45933;51.336;12.612;2023-04-03T06:08:42;101321.06;;;1.23;59.24
60061;BME280;45933;51.336;12.612;2023-04-03T06:11:08;101318.78;;;1.29;58.91
60061;BME280;45933;51.336;12.612;2023-04-03T06:13:33;101324.25;;;1.36;59.12
60061;BME280;45933;51.336;12.612;2023-04-03T06:16:00;101322.72;;;1.39;58.62
60061;BME280;45933;51.336;12.612;2023-04-03T06:18:25;101331.38;;;1.41;58.81
60061;BME280;45933;51.336;12.612;2023-04-03T06:20:51;101323.91;;;1.46;58.76
60061;BME280;45933;51.336;12.612;2023-04-03T06:23:16;101329.22;;;1.49;58.68
60061;BME280;45933;51.336;12.612;2023-04-03T06:25:42;101328.47;;;1.51;58.78
60061;BME280;45933;51.336;12.612;2023-04-03T06:28:08;101328.66;;;1.54;58.55
60061;BME280;45933;51.336;12.612;2023-04-03T06:30:35;101326.44;;;1.62;58.53
60061;BME280;45933;51.336;12.612;2023-04-03T06:33:00;101331.81;;;1.67;58.78
60061;BME280;45933;51.336;12.612;2023-04-03T06:35:25;101329.25;;;1.67;58.63
60061;BME280;45933;51.336;12.612;2023-04-03T06:37:52;101330.38;;;1.72;58.20
60061;BME280;45933;51.336;12.612;2023-04-03T06:40:23;101331.72;;;1.81;58.47
60061;BME280;45933;51.336;12.612;2023-04-03T06:42:48;101337.72;;;1.82;58.31
60061;BME280;45933;51.336;12.612;2023-04-03T06:45:14;101343.97;;;1.87;58.26
60061;BME280;45933;51.336;12.612;2023-04-03T06:47:39;101338.25;;;1.93;58.11
60061;BME280;45933;51.336;12.612;2023-04-03T06:50:05;101342.00;;;1.99;58.20
60061;BME280;45933;51.336;12.612;2023-04-03T06:52:31;101340.53;;;2.04;57.84
60061;BME280;45933;51.336;12.612;2023-04-03T06:54:57;101338.94;;;2.06;57.45
60061;BME280;45933;51.336;12.612;2023-04-03T06:57:22;101339.25;;;2.13;57.94
60061;BME280;45933;51.336;12.612;2023-04-03T06:59:48;101337.53;;;2.13;57.32
60061;BME280;45933;51.336;12.612;2023-04-03T07:02:13;101339.69;;;2.22;57.25
60061;BME280;45933;51.336;12.612;2023-04-03T07:04:38;101344.84;;;2.22;57.47
60061;BME280;45933;51.336;12.612;2023-04-03T07:07:04;101338.22;;;2.27;56.84
60061;BME280;45933;51.336;12.612;2023-04-03T07:09:29;101344.44;;;2.32;56.88
60061;BME280;45933;51.336;12.612;2023-04-03T07:11:55;101349.69;;;2.33;56.57
60061;BME280;45933;51.336;12.612;2023-04-03T07:14:20;101344.88;;;2.41;56.03
60061;BME280;45933;51.336;12.612;2023-04-03T07:16:46;101355.34;;;2.44;56.02
60061;BME280;45933;51.336;12.612;2023-04-03T07:19:11;101357.16;;;2.47;55.82
60061;BME280;45933;51.336;12.612;2023-04-03T07:21:37;101355.56;;;2.49;54.60
60061;BME280;45933;51.336;12.612;2023-04-03T07:24:02;101355.91;;;2.56;55.92
60061;BME280;45933;51.336;12.612;2023-04-03T07:26:28;101355.31;;;2.62;55.78
60061;BME280;45933;51.336;12.612;2023-04-03T07:28:53;101353.09;;;2.70;55.89
60061;BME280;45933;51.336;12.612;2023-04-03T07:31:18;101359.41;;;2.76;55.42
60061;BME280;45933;51.336;12.612;2023-04-03T07:33:44;101363.03;;;2.80;54.83
60061;BME280;45933;51.336;12.612;2023-04-03T07:36:11;101366.69;;;2.85;54.58
60061;BME280;45933;51.336;12.612;2023-04-03T07:38:39;101362.75;;;2.93;54.97
60061;BME280;45933;51.336;12.612;2023-04-03T07:41:04;101369.75;;;2.96;54.01
60061;BME280;45933;51.336;12.612;2023-04-03T07:43:30;101370.09;;;3.03;53.53
60061;BME280;45933;51.336;12.612;2023-04-03T07:45:56;101371.94;;;3.06;52.93
60061;BME280;45933;51.336;12.612;2023-04-03T07:48:23;101373.19;;;3.15;53.15
60061;BME280;45933;51.336;12.612;2023-04-03T07:50:49;101365.47;;;3.15;51.96
60061;BME280;45933;51.336;12.612;2023-04-03T07:53:15;101372.69;;;3.23;51.91
60061;BME280;45933;51.336;12.612;2023-04-03T07:55:41;101379.19;;;3.34;53.49
60061;BME280;45933;51.336;12.612;2023-04-03T07:58:14;101379.41;;;3.38;53.45
60061;BME280;45933;51.336;12.612;2023-04-03T08:00:40;101370.28;;;3.47;53.12
60061;BME280;45933;51.336;12.612;2023-04-03T08:03:07;101374.78;;;3.51;52.18
60061;BME280;45933;51.336;12.612;2023-04-03T08:05:37;101371.16;;;3.66;52.75
60061;BME280;45933;51.336;12.612;2023-04-03T08:08:05;101366.25;;;3.73;51.25
60061;BME280;45933;51.336;12.612;2023-04-03T08:10:31;101363.13;;;3.80;51.33
60061;BME280;45933;51.336;12.612;2023-04-03T08:12:56;101357.66;;;3.93;52.48
60061;BME280;45933;51.336;12.612;2023-04-03T08:15:22;101361.63;;;4.06;53.06
60061;BME280;45933;51.336;12.612;2023-04-03T08:17:48;101363.06;;;4.20;52.67
60061;BME280;45933;51.336;12.612;2023-04-03T08:20:13;101356.00;;;4.37;52.64
60061;BME280;45933;51.336;12.612;2023-04-03T08:22:39;101369.41;;;4.49;51.56
60061;BME280;45933;51.336;12.612;2023-04-03T08:25:04;101369.94;;;4.63;51.12
60061;BME280;45933;51.336;12.612;2023-04-03T08:27:30;101364.28;;;4.73;50.60
60061;BME280;45933;51.336;12.612;2023-04-03T08:29:56;101369.69;;;4.79;49.65
60061;BME280;45933;51.336;12.612;2023-04-03T08:32:22;101360.06;;;4.97;49.79
60061;BME280;45933;51.336;12.612;2023-04-03T08:34:48;101361.06;;;5.25;49.54
60061;BME280;45933;51.336;12.612;2023-04-03T08:37:13;101363.31;;;5.64;49.26
60061;BME280;45933;51.336;12.612;2023-04-03T08:39:38;101363.19;;;6.10;49.11
60061;BME280;45933;51.336;12.612;2023-04-03T08:42:14;101348.44;;;6.62;46.80
60061;BME280;45933;51.336;12.612;2023-04-03T08:44:49;101362.22;;;7.18;48.41
60061;BME280;45933;51.336;12.612;2023-04-03T08:47:38;101354.75;;;7.62;46.54
60061;BME280;45933;51.336;12.612;2023-04-03T08:50:07;101354.50;;;7.85;45.37
60061;BME280;45933;51.336;12.612;2023-04-03T08:52:48;101352.88;;;8.24;47.54
60061;BME280;45933;51.336;12.612;2023-04-03T08:55:27;101361.81;;;8.35;43.75
60061;BME280;45933;51.336;12.612;2023-04-03T08:58:00;101360.09;;;8.35;41.25
60061;BME280;45933;51.336;12.612;2023-04-03T09:00:30;101359.22;;;8.35;41.19
60061;BME280;45933;51.336;12.612;2023-04-03T09:02:56;101361.97;;;8.41;42.26
60061;BME280;45933;51.336;12.612;2023-04-03T09:05:35;101362.00;;;8.43;42.15
60061;BME280;45933;51.336;12.612;2023-04-03T09:10:49;101366.31;;;8.41;43.25
60061;BME280;45933;51.336;12.612;2023-04-03T09:13:28;101370.69;;;8.43;41.76
60061;BME280;45933;51.336;12.612;2023-04-03T09:15:56;101373.78;;;8.64;42.69
60061;BME280;45933;51.336;12.612;2023-04-03T09:18:38;101358.94;;;8.98;44.46
60061;BME280;45933;51.336;12.612;2023-04-03T09:21:19;101366.53;;;9.30;43.27
60061;BME280;45933;51.336;12.612;2023-04-03T09:23:51;101365.16;;;9.49;40.19
60061;BME280;45933;51.336;12.612;2023-04-03T09:26:20;101364.75;;;9.73;39.65
60061;BME280;45933;51.336;12.612;2023-04-03T09:28:48;101364.06;;;9.83;39.21
60061;BME280;45933;51.336;12.612;2023-04-03T09:31:18;101354.75;;;9.97;39.94
60061;BME280;45933;51.336;12.612;2023-04-03T09:33:45;101356.50;;;9.98;39.30
60061;BME280;45933;51.336;12.612;2023-04-03T09:36:11;101360.75;;;9.93;38.41
60061;BME280;45933;51.336;12.612;2023-04-03T09:38:36;101362.50;;;9.94;38.25
60061;BME280;45933;51.336;12.612;2023-04-03T09:41:16;101360.66;;;9.87;37.61
60061;BME280;45933;51.336;12.612;2023-04-03T09:43:51;101362.53;;;9.95;40.79
60061;BME280;45933;51.336;12.612;2023-04-03T09:46:32;101351.34;;;10.01;39.44
60061;BME280;45933;51.336;12.612;2023-04-03T09:49:04;101358.38;;;10.07;39.08
60061;BME280;45933;51.336;12.612;2023-04-03T09:51:31;101351.41;;;10.06;36.40
60061;BME280;45933;51.336;12.612;2023-04-03T09:53:57;101349.84;;;10.14;37.08
60061;BME280;45933;51.336;12.612;2023-04-03T09:56:28;101353.41;;;10.19;38.23
60061;BME280;45933;51.336;12.612;2023-04-03T10:01:30;101347.25;;;10.15;37.66
60061;BME280;45933;51.336;12.612;2023-04-03T10:04:13;101346.38;;;10.15;37.76
60061;BME280;45933;51.336;12.612;2023-04-03T10:06:48;101353.13;;;10.02;35.91
60061;BME280;45933;51.336;12.612;2023-04-03T10:09:31;101354.97;;;10.09;35.76
60061;BME280;45933;51.336;12.612;2023-04-03T10:12:08;101347.44;;;10.25;36.63
60061;BME280;45933;51.336;12.612;2023-04-03T10:14:37;101346.03;;;10.48;35.99
60061;BME280;45933;51.336;12.612;2023-04-03T10:17:18;101339.66;;;10.90;37.23
60061;BME280;45933;51.336;12.612;2023-04-03T10:28:44;101323.19;;;12.90;34.04
60061;BME280;45933;51.336;12.612;2023-04-03T10:31:33;101320.72;;;13.19;32.53
60061;BME280;45933;51.336;12.612;2023-04-03T10:34:11;101319.97;;;13.63;33.64
60061;BME280;45933;51.336;12.612;2023-04-03T10:42:19;101305.09;;;14.57;31.37
60061;BME280;45933;51.336;12.612;2023-04-03T10:45:03;101298.84;;;14.96;32.04
60061;BME280;45933;51.336;12.612;2023-04-03T10:47:55;101306.47;;;15.47;33.57
60061;BME280;45933;51.336;12.612;2023-04-03T10:50:38;101301.84;;;15.84;33.20
60061;BME280;45933;51.336;12.612;2023-04-03T10:58:32;101281.56;;;16.84;32.02
60061;BME280;45933;51.336;12.612;2023-04-03T11:01:05;101289.38;;;16.93;28.79
60061;BME280;45933;51.336;12.612;2023-04-03T11:03:40;101291.84;;;17.04;26.91
60061;BME280;45933;51.336;12.612;2023-04-03T11:06:10;101286.47;;;17.12;27.72
60061;BME280;45933;51.336;12.612;2023-04-03T11:11:21;101280.84;;;17.38;29.29
60061;BME280;45933;51.336;12.612;2023-04-03T11:13:55;101280.03;;;17.33;26.35
60061;BME280;45933;51.336;12.612;2023-04-03T11:16:26;101276.34;;;17.46;27.28
60061;BME280;45933;51.336;12.612;2023-04-03T11:18:56;101277.78;;;17.65;27.41
60061;BME280;45933;51.336;12.612;2023-04-03T11:21:28;101272.44;;;17.70;27.34
60061;BME280;45933;51.336;12.612;2023-04-03T11:23:57;101273.22;;;17.78;26.35
60061;BME280;45933;51.336;12.612;2023-04-03T11:26:27;101275.16;;;17.65;24.64
60061;BME280;45933;51.336;12.612;2023-04-03T11:29:04;101268.44;;;17.46;23.49
60061;BME280;45933;51.336;12.612;2023-04-03T11:34:31;101271.69;;;17.02;25.89
60061;BME280;45933;51.336;12.612;2023-04-03T11:37:01;101266.50;;;16.95;26.99
60061;BME280;45933;51.336;12.612;2023-04-03T11:39:34;101262.97;;;16.96;27.17
60061;BME280;45933;51.336;12.612;2023-04-03T11:47:57;101269.44;;;16.68;25.97
60061;BME280;45933;51.336;12.612;2023-04-03T12:16:33;101254.41;;;14.50;28.33
60061;BME280;45933;51.336;12.612;2023-04-03T12:24:28;101259.66;;;14.36;27.69
60061;BME280;45933;51.336;12.612;2023-04-03T12:37:57;101237.91;;;13.66;29.42
60061;BME280;45933;51.336;12.612;2023-04-03T12:40:46;101238.75;;;13.42;29.61
60061;BME280;45933;51.336;12.612;2023-04-03T12:48:55;101237.72;;;12.95;29.53
60061;BME280;45933;51.336;12.612;2023-04-03T12:53:52;101233.19;;;12.54;29.20
60061;BME280;45933;51.336;12.612;2023-04-03T12:56:25;101232.25;;;12.37;28.62
60061;BME280;45933;51.336;12.612;2023-04-03T12:58:52;101235.72;;;12.30;29.54
60061;BME280;45933;51.336;12.612;2023-04-03T13:01:23;101239.09;;;12.15;28.52
60061;BME280;45933;51.336;12.612;2023-04-03T13:03:57;101248.63;;;12.07;29.45
60061;BME280;45933;51.336;12.612;2023-04-03T13:06:30;101240.69;;;11.93;29.73
60061;BME280;45933;51.336;12.612;2023-04-03T13:09:00;101237.91;;;11.75;29.83
60061;BME280;45933;51.336;12.612;2023-04-03T13:11:30;101238.66;;;11.62;30.42
60061;BME280;45933;51.336;12.612;2023-04-03T13:14:05;101246.41;;;11.54;31.56
60061;BME280;45933;51.336;12.612;2023-04-03T13:16:38;101241.09;;;11.40;30.57
60061;BME280;45933;51.336;12.612;2023-04-03T13:19:06;101246.22;;;11.31;31.06
60061;BME280;45933;51.336;12.612;2023-04-03T13:21:40;101248.75;;;11.23;31.40
60061;BME280;45933;51.336;12.612;2023-04-03T13:24:06;101241.69;;;11.13;31.48
60061;BME280;45933;51.336;12.612;2023-04-03T13:26:33;101251.09;;;10.97;31.33
60061;BME280;45933;51.336;12.612;2023-04-03T13:29:28;101242.28;;;10.91;31.09
60061;BME280;45933;51.336;12.612;2023-04-03T13:31:54;101246.44;;;10.72;30.59
60061;BME280;45933;51.336;12.612;2023-04-03T13:34:22;101238.53;;;10.66;31.75
60061;BME280;45933;51.336;12.612;2023-04-03T13:36:59;101241.81;;;10.53;31.80
60061;BME280;45933;51.336;12.612;2023-04-03T13:39:30;101239.16;;;10.48;31.69
60061;BME280;45933;51.336;12.612;2023-04-03T13:42:14;101241.56;;;10.33;31.43
60061;BME280;45933;51.336;12.612;2023-04-03T13:44:40;101239.72;;;10.24;32.58
60061;BME280;45933;51.336;12.612;2023-04-03T13:49:43;101238.44;;;9.99;32.33
60061;BME280;45933;51.336;12.612;2023-04-03T13:52:42;101239.44;;;10.07;33.05
60061;BME280;45933;51.336;12.612;2023-04-03T13:55:26;101242.72;;;9.95;32.88
60061;BME280;45933;51.336;12.612;2023-04-03T13:57:59;101241.75;;;9.87;33.13
60061;BME280;45933;51.336;12.612;2023-04-03T14:00:48;101237.22;;;9.77;32.77
60061;BME280;45933;51.336;12.612;2023-04-03T14:03:25;101238.09;;;9.78;33.23
60061;BME280;45933;51.336;12.612;2023-04-03T14:05:51;101241.44;;;9.69;32.57
60061;BME280;45933;51.336;12.612;2023-04-03T14:08:18;101234.34;;;9.60;33.00
60061;BME280;45933;51.336;12.612;2023-04-03T14:10:43;101238.72;;;9.61;33.55
60061;BME280;45933;51.336;12.612;2023-04-03T14:13:12;101234.38;;;9.62;33.17
60061;BME280;45933;51.336;12.612;2023-04-03T14:15:39;101232.53;;;9.56;32.84
60061;BME280;45933;51.336;12.612;2023-04-03T14:18:04;101236.81;;;9.51;33.22
60061;BME280;45933;51.336;12.612;2023-04-03T14:20:29;101234.13;;;9.48;33.19
60061;BME280;45933;51.336;12.612;2023-04-03T14:22:55;101234.03;;;9.43;33.51
60061;BME280;45933;51.336;12.612;2023-04-03T14:25:21;101231.31;;;9.36;33.84